Aérodrome :
LOGIN :

S'inscrire | Disclaimer

   EN    FR    IT 

 










Légende :    VFR   VFR Marginal   IFR   IFR Intensif   IFR Très Intensif
Visi : 
Plafond : 
>= 8 km
>= 3000ft
5 à 8 km
1000 à 3000 ft
1500m à 5 km
500 à 1000 ft
800 à 1500m
200 à 500 ft
< 800m
< 200 ft
Symboles :   Orages  Brouillard  Fortes neiges  Fortes précipitations  Vent > 20 kt
SIGMETs :   Divers  Orages  Givrage  Turbulence  Onde Orograph.  Cendres Volcan.






- Altitude de l'aérodrome : 353 ft
- Code IATA : ZAG


LDZA - Zagreb Pleso

DERNIER METAR :
  • 100330Z 23004KT CAVOK 05/M01 Q1022 NOSIG

METARs EXPIRÉS :
  • 100300Z 25004KT CAVOK 05/M01 Q1022 NOSIG
  • 100230Z 26003KT CAVOK 06/M01 Q1022 NOSIG
  • 100200Z 25003KT CAVOK 06/M01 Q1022 NOSIG
  • 100130Z 26003KT CAVOK 06/M00 Q1021 NOSIG
  • 100100Z 27003KT CAVOK 06/M00 Q1021 NOSIG

TAF TAF LDZA
Valide du 10 à 00h jusqu'au 11 à 00h UTC


092325Z 1000/1100 VRB02KT CAVOK TX24/1013Z TN03/1005Z
PROB40
TEMPO 1006/1012 04008KT
ATIS : +385 1 6-259-214



MET'MAP, la Météo Aéronautique d'un coup d'oeil ! - Copyright ORBIFLY Décembre 2007 - Disclaimer

ORBIFLY MET'MAP TEAM :

Programmation & Développement : Alexandra Zaïnal
Sur une idée originale de : Baudouin d'Aumeries
Assistance à la programmation : Marc-Olivier Méhu
Soutien technique & logistique : Manuel Goepfert

Contact : metmap@orbifly.com




SOURCES & CREDITS :

   NOAA